KJAQ

Westover Field Amador County Airport

Jackson, California, USA
METAR KJAQ 150315Z AUTO 27003KT 10SM CLR 23/12 A2990 RMK AO1 T02330118
Observed Flight Rules
Aug-15 @ 03:15 UTC (20 minutes ago) Visual Flight Rules
Wind Visibility Clouds
270° at 3 knots 10 miles
  • Clear skies
Temperatures Readings
Current 23°C / 73°F
Dewpoint 12°C / 54°F
Humidity 50%
Altimeter 29.9" Hg
Pressure 1013 hPa
Elevation 512
METAR KJAQ 150315Z AUTO 27003KT 10SM CLR 23/12 A2990 RMK AO1 T02330118
Observed Flight Rules
Aug-15 @ 03:15 UTC
(20 minutes ago)
VFR
Wind Visibility
270° at 3 knots 10 miles
Clouds
  • Clear skies
Temperature Dewpoint
23°C / 73°F 12°C / 54°F
Humidity Altimeter Pressure
50% 29.9" Hg 1013 hPa